Aeroporto :
LOGIN :

Iscrizione | Disclaimer

   EN    FR    IT 

 










Sommario :    VFR   VFR Marginale   IFR   IFR Intensivo   IFR Molto Intensivo
Visibilità : 
Base nubi : 
>= 8 km
>= 3000ft
5 / 8 km
1000 / 3000 ft
1500m / 5 km
500 / 1000 ft
800 / 1500m
200 / 500 ft
< 800m
< 200 ft
Simboli :   Temporali  Nebbia  Neve Forte  Precipitazioni Forti  Vento > 20 kt
SIGMETs :   Varie  Temporali  Ghiacco  Turbolenza  Onda orograficha  Ceneri Vulcaniche






- Altitudine del aeroporto : 302 ft
- Codice IATA : MAH


LEMH - Menorca

ULTIMO METAR :
  • 211530Z 36012KT 320V020 CAVOK 15/08 Q1028

METARs OBSOLETI :
  • 211500Z 35011KT 320V020 CAVOK 15/09 Q1029
  • 211430Z 36012KT CAVOK 16/09 Q1029
  • 211400Z 36014KT 340V040 9999 FEW024 16/09 Q1029
  • 211330Z 36013KT 320V030 9999 FEW024 16/09 Q1029
  • 211300Z 01014G25KT 330V030 9999 FEW024 16/09 Q1029

TAF TAF LEMH
Valido dal 21 a 15 ore il 22 a 15 ore UTC


211400Z 2115/2215 01012KT 9999 FEW020 TX17/2213Z TN07/2206Z
BECMG 2117/2119 31005KT



MetMap, La meteo Aeronautica in un colpo d'occhio ! - Copyright ORBIFLY Dicembre 2007 - Disclaimer

ORBIFLY MET'MAP TEAM :

Programmazione e sviluppo : Alexandra Zaïnal
Concezione : Baudouin d'Aumeries
Aiuto per la programmazione : Marc-Olivier Méhu
Supporto tecnico e logistico : Manuel Goepfert
Aiuto per la traduzione : Arnaldo La Scala

Contatto : metmap@orbifly.com




FONTI E CREDITI :

   NOAA